| time (UTC) | temp C | wind direction | speed KPH | gust KPH | rain 1hr cm | rain 24hr cm | rain mn cm | humidity % | barometer mb |
| 20260905183525 | 12 | 319 | 3.2 | 11.3 | 0.05 | 0.53 | 0.25 | 97 | 1017.1 |
| 20260905183037 | 12 | 287 | 3.2 | 12.9 | 0.03 | 0.51 | 0.23 | 97 | 1017.2 |
| 20260905182549 | 12 | 317 | 1.6 | 8.0 | 0.00 | 0.48 | 0.20 | 96 | 1016.7 |
| 20260905182029 | 12 | 320 | 0.0 | 1.6 | 0.00 | 0.48 | 0.20 | 96 | 1016.2 |
| 20260905181541 | 12 | 317 | 0.0 | 1.6 | 0.05 | 0.48 | 0.20 | 96 | 1016.2 |
| 20260905181021 | 12 | 0.0 | 0.0 | 0.05 | 0.48 | 0.20 | 96 | 1016.4 | |
| 20260905180533 | 12 | 322 | 0.0 | 1.6 | 0.05 | 0.48 | 0.20 | 96 | 1016.3 |
| 20260905180045 | 12 | 0.0 | 0.0 | 0.05 | 0.48 | 0.20 | 96 | 1016.4 | |
| 20260905175525 | 12 | 324 | 0.0 | 1.6 | 0.05 | 0.48 | 0.20 | 95 | 1016.2 |
| 20260905175038 | 12 | 0.0 | 0.0 | 0.05 | 0.48 | 0.20 | 95 | 1016.3 | |
| 20260905174535 | 12 | 0.0 | 0.0 | 0.05 | 0.48 | 0.20 | 95 | 1016.3 | |
| 20260905174045 | 12 | 323 | 0.0 | 1.6 | 0.05 | 0.48 | 0.20 | 94 | 1016.4 |
| 20260905173526 | 13 | 321 | 0.0 | 3.2 | 0.05 | 0.48 | 0.20 | 94 | 1016.4 |
| 20260905173037 | 13 | 323 | 1.6 | 3.2 | 0.05 | 0.48 | 0.20 | 93 | 1016.5 |
| 20260905172549 | 13 | 320 | 1.6 | 4.8 | 0.05 | 0.48 | 0.20 | 91 | 1016.6 |
| 20260905172029 | 16 | 301 | 6.4 | 33.8 | 0.05 | 0.48 | 0.20 | 84 | 1016.7 |
| 20260905171541 | 16 | 314 | 3.2 | 8.0 | 0.00 | 0.43 | 0.15 | 77 | 1016.1 |
| 20260905171021 | 17 | 317 | 1.6 | 8.0 | 0.00 | 0.43 | 0.15 | 74 | 1015.9 |
| 20260905170533 | 17 | 315 | 4.8 | 11.3 | 0.00 | 0.43 | 0.15 | 68 | 1015.7 |
| 20260905170034 | 18 | 321 | 3.2 | 8.0 | 0.00 | 0.43 | 0.15 | 68 | 1015.6 |
| 20260905165542 | 18 | 324 | 3.2 | 8.0 | 0.00 | 0.43 | 0.15 | 67 | 1015.5 |
| 20260905165021 | 18 | 317 | 4.8 | 9.7 | 0.00 | 0.43 | 0.15 | 66 | 1015.5 |
| 20260905164533 | 18 | 318 | 4.8 | 11.3 | 0.00 | 0.43 | 0.15 | 66 | 1015.5 |
| 20260905164045 | 18 | 310 | 3.2 | 8.0 | 0.00 | 0.43 | 0.15 | 66 | 1015.4 |
| 20260905163525 | 18 | 330 | 3.2 | 16.1 | 0.00 | 0.43 | 0.15 | 66 | 1015.3 |
| 20260905163037 | 18 | 326 | 4.8 | 12.9 | 0.00 | 0.43 | 0.15 | 64 | 1015.4 |
| 20260905162549 | 18 | 318 | 4.8 | 11.3 | 0.00 | 0.43 | 0.15 | 64 | 1015.2 |
| 20260905162045 | 18 | 313 | 4.8 | 11.3 | 0.00 | 0.43 | 0.15 | 63 | 1015.1 |
| 20260905161525 | 18 | 328 | 3.2 | 8.0 | 0.00 | 0.43 | 0.15 | 63 | 1015.0 |
| 20260905161021 | 18 | 340 | 3.2 | 9.7 | 0.00 | 0.43 | 0.15 | 63 | 1015.1 |
| 20260905160533 | 18 | 315 | 4.8 | 9.7 | 0.00 | 0.43 | 0.15 | 63 | 1015.0 |
| 20260905160045 | 18 | 317 | 4.8 | 12.9 | 0.00 | 0.43 | 0.15 | 62 | 1014.9 |
| 20260905155525 | 18 | 321 | 3.2 | 9.7 | 0.00 | 0.43 | 0.15 | 62 | 1014.8 |
| 20260905155037 | 18 | 335 | 3.2 | 8.0 | 0.00 | 0.43 | 0.15 | 63 | 1014.8 |
| 20260905154549 | 18 | 321 | 4.8 | 12.9 | 0.00 | 0.43 | 0.15 | 62 | 1014.7 |
| 20260905154045 | 19 | 304 | 6.4 | 16.1 | 0.00 | 0.43 | 0.15 | 62 | 1014.8 |
| 20260905153525 | 19 | 313 | 3.2 | 12.9 | 0.00 | 0.43 | 0.15 | 62 | 1014.8 |
| 20260905153037 | 19 | 307 | 3.2 | 8.0 | 0.00 | 0.43 | 0.15 | 63 | 1014.8 |
| 20260905152549 | 19 | 326 | 3.2 | 8.0 | 0.00 | 0.43 | 0.15 | 62 | 1014.8 |
| 20260905152029 | 19 | 293 | 3.2 | 14.5 | 0.00 | 0.43 | 0.15 | 62 | 1014.8 |
| 20260905151541 | 19 | 319 | 4.8 | 17.7 | 0.00 | 0.43 | 0.15 | 61 | 1014.7 |
| 20260905151021 | 19 | 316 | 4.8 | 9.7 | 0.00 | 0.43 | 0.15 | 59 | 1014.7 |
| 20260905150533 | 19 | 320 | 6.4 | 14.5 | 0.00 | 0.43 | 0.15 | 59 | 1014.6 |
| 20260905150046 | 19 | 306 | 3.2 | 9.7 | 0.00 | 0.43 | 0.15 | 60 | 1014.6 |
| 20260905145525 | 19 | 334 | 4.8 | 16.1 | 0.00 | 0.43 | 0.15 | 61 | 1014.6 |
| 20260905145037 | 19 | 312 | 4.8 | 12.9 | 0.00 | 0.43 | 0.15 | 61 | 1014.6 |
| 20260905144549 | 19 | 315 | 3.2 | 9.7 | 0.00 | 0.43 | 0.15 | 61 | 1014.5 |
| 20260905144029 | 20 | 328 | 4.8 | 16.1 | 0.00 | 0.43 | 0.15 | 61 | 1014.5 |
| 20260905143525 | 19 | 318 | 6.4 | 16.1 | 0.00 | 0.43 | 0.15 | 62 | 1014.6 |
| 20260905143021 | 19 | 314 | 3.2 | 9.7 | 0.00 | 0.43 | 0.15 | 62 | 1014.7 |
| 20260905142533 | 18 | 324 | 4.8 | 9.7 | 0.00 | 0.43 | 0.15 | 63 | 1014.6 |
| 20260905142045 | 19 | 329 | 4.8 | 11.3 | 0.00 | 0.43 | 0.15 | 61 | 1014.6 |
| 20260905141525 | 20 | 320 | 3.2 | 9.7 | 0.00 | 0.43 | 0.15 | 63 | 1014.7 |
| 20260905141037 | 19 | 333 | 4.8 | 12.9 | 0.00 | 0.43 | 0.15 | 67 | 1014.7 |
| 20260905140549 | 19 | 308 | 3.2 | 9.7 | 0.00 | 0.43 | 0.15 | 66 | 1014.7 |
| 20260905140030 | 19 | 321 | 3.2 | 14.5 | 0.00 | 0.43 | 0.15 | 66 | 1014.7 |
| 20260905135525 | 20 | 326 | 4.8 | 11.3 | 0.00 | 0.43 | 0.15 | 65 | 1014.8 |
| 20260905135037 | 19 | 314 | 4.8 | 11.3 | 0.00 | 0.43 | 0.15 | 65 | 1014.7 |
| 20260905134549 | 19 | 323 | 4.8 | 11.3 | 0.00 | 0.43 | 0.15 | 66 | 1014.8 |
| 20260905134029 | 18 | 312 | 3.2 | 8.0 | 0.00 | 0.43 | 0.15 | 67 | 1014.8 |
| 20260905133541 | 18 | 330 | 3.2 | 4.8 | 0.00 | 0.43 | 0.15 | 67 | 1014.9 |
| 20260905133021 | 19 | 312 | 3.2 | 11.3 | 0.00 | 0.43 | 0.15 | 66 | 1014.8 |
| 20260905132533 | 19 | 309 | 3.2 | 12.9 | 0.00 | 0.43 | 0.15 | 66 | 1014.8 |
| 20260905132045 | 18 | 327 | 4.8 | 14.5 | 0.00 | 0.43 | 0.15 | 67 | 1014.8 |
| 20260905131541 | 18 | 313 | 3.2 | 9.7 | 0.00 | 0.43 | 0.15 | 67 | 1014.8 |
| 20260905131021 | 19 | 330 | 3.2 | 9.7 | 0.00 | 0.43 | 0.15 | 66 | 1014.7 |
| 20260905130533 | 19 | 322 | 4.8 | 17.7 | 0.00 | 0.43 | 0.15 | 65 | 1014.7 |
| 20260905130029 | 19 | 325 | 3.2 | 8.0 | 0.00 | 0.43 | 0.15 | 67 | 1014.9 |
| 20260905125541 | 19 | 324 | 4.8 | 11.3 | 0.00 | 0.43 | 0.15 | 65 | 1014.8 |
| 20260905125021 | 20 | 314 | 3.2 | 9.7 | 0.00 | 0.43 | 0.15 | 63 | 1014.8 |
| 20260905124533 | 20 | 313 | 6.4 | 22.5 | 0.00 | 0.43 | 0.15 | 63 | 1014.8 |
| 20260905124045 | 20 | 323 | 4.8 | 9.7 | 0.00 | 0.43 | 0.15 | 61 | 1014.8 |
| 20260905123525 | 20 | 315 | 3.2 | 12.9 | 0.00 | 0.43 | 0.15 | 61 | 1014.8 |
| 20260905123037 | 20 | 316 | 4.8 | 14.5 | 0.00 | 0.43 | 0.15 | 62 | 1014.9 |
| 20260905122538 | 20 | 291 | 4.8 | 16.1 | 0.00 | 0.43 | 0.15 | 61 | 1014.9 |
| 20260905122045 | 21 | 325 | 4.8 | 17.7 | 0.00 | 0.43 | 0.15 | 60 | 1014.9 |
| 20260905121541 | 21 | 304 | 4.8 | 11.3 | 0.00 | 0.43 | 0.15 | 60 | 1014.9 |
| 20260905121021 | 20 | 332 | 6.4 | 17.7 | 0.00 | 0.43 | 0.15 | 60 | 1014.9 |
| 20260905120533 | 21 | 311 | 6.4 | 27.4 | 0.00 | 0.43 | 0.15 | 60 | 1014.9 |
| 20260905120045 | 20 | 286 | 3.2 | 11.3 | 0.00 | 0.43 | 0.15 | 62 | 1014.9 |
| 20260905115525 | 20 | 322 | 6.4 | 12.9 | 0.00 | 0.43 | 0.15 | 60 | 1014.9 |
| 20260905115037 | 20 | 314 | 6.4 | 16.1 | 0.00 | 0.43 | 0.15 | 60 | 1015.0 |
| 20260905114538 | 20 | 306 | 4.8 | 11.3 | 0.00 | 0.43 | 0.15 | 61 | 1015.0 |
| 20260905114031 | 20 | 325 | 6.4 | 14.5 | 0.00 | 0.43 | 0.15 | 61 | 1014.9 |
| 20260905113541 | 20 | 320 | 8.0 | 25.7 | 0.00 | 0.43 | 0.15 | 61 | 1014.9 |
| 20260905113038 | 20 | 324 | 6.4 | 17.7 | 0.00 | 0.43 | 0.15 | 61 | 1014.8 |
| 20260905112535 | 19 | 312 | 6.4 | 12.9 | 0.00 | 0.43 | 0.15 | 61 | 1014.8 |
| 20260905112045 | 20 | 324 | 6.4 | 14.5 | 0.00 | 0.43 | 0.15 | 61 | 1014.8 |
| 20260905111526 | 19 | 310 | 8.0 | 17.7 | 0.00 | 0.43 | 0.15 | 61 | 1014.8 |
| 20260905111037 | 19 | 326 | 6.4 | 16.1 | 0.00 | 0.43 | 0.15 | 64 | 1014.9 |
| 20260905110518 | 19 | 313 | 8.0 | 27.4 | 0.00 | 0.43 | 0.15 | 64 | 1014.8 |
| 20260905110101 | 19 | 302 | 6.4 | 22.5 | 0.00 | 0.43 | 0.15 | 64 | 1014.8 |
| 20260905105525 | 19 | 302 | 6.4 | 11.3 | 0.00 | 0.43 | 0.15 | 65 | 1014.8 |
| 20260905105021 | 18 | 316 | 8.0 | 20.9 | 0.00 | 0.43 | 0.15 | 65 | 1014.7 |
| 20260905104533 | 18 | 334 | 4.8 | 17.7 | 0.00 | 0.43 | 0.15 | 67 | 1014.8 |
| 20260905104045 | 18 | 318 | 4.8 | 17.7 | 0.00 | 0.43 | 0.15 | 67 | 1014.9 |
| 20260905103525 | 19 | 331 | 6.4 | 22.5 | 0.00 | 0.43 | 0.15 | 68 | 1014.7 |
| 20260905103037 | 19 | 318 | 6.4 | 14.5 | 0.00 | 0.43 | 0.15 | 67 | 1014.6 |
| 20260905102517 | 20 | 298 | 4.8 | 11.3 | 0.00 | 0.43 | 0.15 | 69 | 1014.6 |
| 20260905102029 | 19 | 324 | 4.8 | 20.9 | 0.00 | 0.43 | 0.15 | 69 | 1014.7 |
| 20260905101541 | 18 | 313 | 6.4 | 14.5 | 0.00 | 0.43 | 0.15 | 69 | 1014.7 |
| 20260905101021 | 17 | 311 | 4.8 | 20.9 | 0.00 | 0.43 | 0.15 | 72 | 1014.7 |
| 20260905100533 | 17 | 318 | 8.0 | 16.1 | 0.00 | 0.43 | 0.15 | 73 | 1014.7 |
| 20260905100045 | 17 | 319 | 4.8 | 9.7 | 0.00 | 0.43 | 0.15 | 76 | 1014.5 |
| 20260905095525 | 17 | 317 | 4.8 | 11.3 | 0.00 | 0.43 | 0.15 | 75 | 1014.7 |
| 20260905095037 | 18 | 299 | 6.4 | 16.1 | 0.00 | 0.43 | 0.15 | 72 | 1014.6 |
| 20260905094517 | 20 | 315 | 4.8 | 16.1 | 0.00 | 0.43 | 0.15 | 71 | 1014.5 |
| 20260905094045 | 20 | 312 | 6.4 | 14.5 | 0.00 | 0.43 | 0.15 | 70 | 1014.3 |
| 20260905093525 | 20 | 314 | 4.8 | 11.3 | 0.00 | 0.43 | 0.15 | 71 | 1014.3 |
| 20260905093037 | 20 | 321 | 3.2 | 16.1 | 0.00 | 0.43 | 0.15 | 72 | 1014.3 |
| 20260905092517 | 19 | 312 | 4.8 | 11.3 | 0.00 | 0.43 | 0.15 | 72 | 1014.2 |
| 20260905092029 | 19 | 314 | 4.8 | 11.3 | 0.00 | 0.43 | 0.15 | 73 | 1014.2 |
| 20260905091541 | 18 | 312 | 6.4 | 20.9 | 0.00 | 0.43 | 0.15 | 73 | 1014.2 |
| 20260905091021 | 18 | 334 | 4.8 | 14.5 | 0.00 | 0.43 | 0.15 | 73 | 1014.1 |
| 20260905090533 | 17 | 344 | 6.4 | 14.5 | 0.00 | 0.43 | 0.15 | 74 | 1014.3 |
| 20260905090046 | 18 | 300 | 4.8 | 11.3 | 0.00 | 0.43 | 0.15 | 76 | 1014.2 |
| 20260905085526 | 17 | 314 | 4.8 | 22.5 | 0.00 | 0.43 | 0.15 | 79 | 1014.1 |
| 20260905085021 | 17 | 338 | 4.8 | 11.3 | 0.00 | 0.43 | 0.15 | 80 | 1014.2 |
| 20260905084535 | 17 | 315 | 4.8 | 24.1 | 0.00 | 0.43 | 0.15 | 81 | 1014.1 |
| 20260905084045 | 17 | 323 | 3.2 | 9.7 | 0.00 | 0.43 | 0.15 | 79 | 1014.1 |
| 20260905083525 | 17 | 309 | 4.8 | 11.3 | 0.00 | 0.43 | 0.15 | 77 | 1013.9 |
| 20260905083037 | 17 | 315 | 4.8 | 9.7 | 0.00 | 0.43 | 0.15 | 80 | 1014.0 |
| 20260905082517 | 16 | 329 | 3.2 | 11.3 | 0.00 | 0.43 | 0.15 | 82 | 1013.9 |
| 20260905082029 | 16 | 318 | 6.4 | 17.7 | 0.00 | 0.43 | 0.15 | 81 | 1014.0 |
| 20260905081541 | 16 | 307 | 4.8 | 14.5 | 0.00 | 0.43 | 0.15 | 81 | 1014.0 |
| 20260905081021 | 17 | 310 | 4.8 | 16.1 | 0.00 | 0.43 | 0.15 | 81 | 1013.9 |
| 20260905080533 | 17 | 338 | 4.8 | 11.3 | 0.00 | 0.43 | 0.15 | 82 | 1013.9 |
| 20260905080045 | 17 | 320 | 4.8 | 16.1 | 0.00 | 0.43 | 0.15 | 82 | 1013.9 |
| 20260905075525 | 17 | 319 | 3.2 | 9.7 | 0.00 | 0.43 | 0.15 | 83 | 1013.9 |
| 20260905075037 | 17 | 301 | 3.2 | 11.3 | 0.00 | 0.43 | 0.15 | 82 | 1013.8 |
| 20260905074517 | 17 | 328 | 3.2 | 9.7 | 0.00 | 0.43 | 0.15 | 84 | 1013.8 |
| 20260905074029 | 16 | 317 | 3.2 | 9.7 | 0.00 | 0.43 | 0.15 | 85 | 1013.7 |
| 20260905073527 | 17 | 328 | 3.2 | 11.3 | 0.00 | 0.43 | 0.15 | 85 | 1013.8 |
| 20260905073037 | 16 | 338 | 4.8 | 17.7 | 0.00 | 0.43 | 0.15 | 85 | 1013.7 |
| 20260905072517 | 16 | 323 | 4.8 | 12.9 | 0.00 | 0.43 | 0.15 | 85 | 1013.7 |
| 20260905072029 | 16 | 317 | 3.2 | 8.0 | 0.00 | 0.43 | 0.15 | 85 | 1013.6 |
| 20260905071541 | 16 | 307 | 4.8 | 16.1 | 0.00 | 0.43 | 0.15 | 86 | 1013.5 |
| 20260905071021 | 16 | 309 | 3.2 | 9.7 | 0.00 | 0.43 | 0.15 | 88 | 1013.6 |
| 20260905070533 | 16 | 309 | 6.4 | 22.5 | 0.00 | 0.43 | 0.15 | 89 | 1013.4 |
| 20260905070045 | 16 | 325 | 3.2 | 11.3 | 0.00 | 0.43 | 0.15 | 90 | 1013.4 |
| 20260905065541 | 16 | 326 | 3.2 | 11.3 | 0.00 | 0.43 | 0.15 | 90 | 1013.3 |
| 20260905065021 | 16 | 313 | 3.2 | 8.0 | 0.00 | 0.43 | 0.15 | 90 | 1013.2 |
| 20260905064533 | 16 | 306 | 3.2 | 11.3 | 0.00 | 0.43 | 0.15 | 92 | 1013.2 |
| 20260905064045 | 15 | 318 | 3.2 | 9.7 | 0.00 | 0.43 | 0.15 | 92 | 1013.1 |
| 20260905063525 | 15 | 323 | 3.2 | 9.7 | 0.00 | 0.43 | 0.15 | 93 | 1013.2 |
| 20260905063021 | 15 | 320 | 4.8 | 12.9 | 0.00 | 0.43 | 0.15 | 92 | 1013.1 |
| 20260905062533 | 15 | 319 | 4.8 | 12.9 | 0.00 | 0.43 | 0.15 | 93 | 1013.2 |
| 20260905062045 | 15 | 319 | 3.2 | 9.7 | 0.00 | 0.43 | 0.15 | 94 | 1013.0 |
| 20260905061526 | 15 | 327 | 3.2 | 8.0 | 0.00 | 0.43 | 0.15 | 94 | 1012.9 |
| 20260905061037 | 15 | 323 | 1.6 | 8.0 | 0.00 | 0.43 | 0.15 | 94 | 1012.7 |
| 20260905060517 | 15 | 328 | 1.6 | 8.0 | 0.00 | 0.43 | 0.15 | 94 | 1012.7 |
| 20260905060029 | 15 | 307 | 3.2 | 9.7 | 0.00 | 0.43 | 0.15 | 95 | 1012.6 |
| 20260905055541 | 15 | 315 | 4.8 | 11.3 | 0.00 | 0.43 | 0.15 | 96 | 1012.7 |
| 20260905055021 | 15 | 316 | 3.2 | 8.0 | 0.00 | 0.43 | 0.15 | 96 | 1012.7 |
| 20260905054534 | 14 | 308 | 1.6 | 8.0 | 0.00 | 0.43 | 0.15 | 97 | 1012.6 |
| 20260905054046 | 15 | 330 | 3.2 | 4.8 | 0.00 | 0.43 | 0.15 | 97 | 1012.5 |
| 20260905053525 | 15 | 326 | 1.6 | 8.0 | 0.00 | 0.43 | 0.15 | 97 | 1012.4 |
| 20260905053038 | 15 | 323 | 1.6 | 3.2 | 0.00 | 0.43 | 0.15 | 97 | 1012.5 |
| 20260905052536 | 15 | 314 | 1.6 | 9.7 | 0.00 | 0.43 | 0.15 | 97 | 1012.4 |
| 20260905052045 | 15 | 317 | 1.6 | 4.8 | 0.00 | 0.43 | 0.15 | 97 | 1012.3 |
| 20260905051526 | 14 | 324 | 1.6 | 4.8 | 0.00 | 0.43 | 0.15 | 97 | 1012.4 |
| 20260905051039 | 14 | 312 | 1.6 | 3.2 | 0.00 | 0.43 | 0.15 | 97 | 1012.2 |
| 20260905050518 | 14 | 339 | 1.6 | 9.7 | 0.00 | 0.43 | 0.15 | 97 | 1012.0 |
| 20260905050030 | 14 | 318 | 1.6 | 3.2 | 0.00 | 0.43 | 0.15 | 97 | 1011.9 |
| 20260905045541 | 14 | 325 | 1.6 | 8.0 | 0.00 | 0.43 | 0.15 | 97 | 1011.9 |
| 20260905045021 | 14 | 326 | 1.6 | 4.8 | 0.00 | 0.43 | 0.15 | 97 | 1011.8 |
| 20260905044533 | 14 | 325 | 1.6 | 4.8 | 0.00 | 0.43 | 0.15 | 98 | 1011.9 |
| 20260905044045 | 14 | 327 | 1.6 | 9.7 | 0.00 | 0.43 | 0.15 | 98 | 1011.9 |
| 20260905043525 | 14 | 327 | 1.6 | 4.8 | 0.00 | 0.43 | 0.15 | 98 | 1011.9 |
| 20260905043037 | 14 | 328 | 1.6 | 3.2 | 0.00 | 0.43 | 0.15 | 98 | 1011.7 |
| 20260905042517 | 14 | 331 | 1.6 | 3.2 | 0.03 | 0.43 | 0.15 | 97 | 1011.6 |
| 20260905042029 | 14 | 325 | 1.6 | 4.8 | 0.03 | 0.43 | 0.15 | 97 | 1011.7 |
| 20260905041541 | 14 | 323 | 3.2 | 4.8 | 0.03 | 0.43 | 0.15 | 97 | 1011.5 |
| 20260905041021 | 15 | 325 | 1.6 | 4.8 | 0.03 | 0.43 | 0.15 | 97 | 1011.5 |
| 20260905040533 | 15 | 331 | 1.6 | 8.0 | 0.03 | 0.43 | 0.15 | 97 | 1011.4 |
| 20260905040046 | 15 | 350 | 1.6 | 4.8 | 0.03 | 0.43 | 0.15 | 97 | 1011.3 |
| 20260905035525 | 15 | 310 | 1.6 | 3.2 | 0.03 | 0.43 | 0.15 | 97 | 1011.3 |
| 20260905035037 | 15 | 327 | 3.2 | 4.8 | 0.03 | 0.43 | 0.15 | 97 | 1011.3 |
| 20260905034517 | 15 | 327 | 3.2 | 9.7 | 0.03 | 0.43 | 0.15 | 97 | 1011.1 |
| 20260905034029 | 15 | 317 | 1.6 | 3.2 | 0.03 | 0.43 | 0.15 | 97 | 1011.0 |
| 20260905033525 | 15 | 319 | 1.6 | 8.0 | 0.03 | 0.43 | 0.15 | 97 | 1011.0 |
| 20260905033037 | 15 | 314 | 1.6 | 8.0 | 0.03 | 0.43 | 0.15 | 97 | 1010.9 |
| 20260905032517 | 15 | 337 | 1.6 | 9.7 | 0.00 | 0.41 | 0.13 | 97 | 1011.0 |
| 20260905032029 | 15 | 319 | 1.6 | 4.8 | 0.00 | 0.41 | 0.13 | 97 | 1010.9 |
| 20260905031542 | 15 | 320 | 1.6 | 4.8 | 0.00 | 0.41 | 0.13 | 97 | 1010.9 |
| 20260905031021 | 15 | 326 | 3.2 | 8.0 | 0.00 | 0.41 | 0.13 | 97 | 1010.7 |
| 20260905030533 | 15 | 320 | 3.2 | 8.0 | 0.00 | 0.41 | 0.13 | 97 | 1010.5 |
| 20260905030045 | 15 | 315 | 3.2 | 12.9 | 0.00 | 0.41 | 0.13 | 97 | 1010.4 |
| 20260905025525 | 15 | 310 | 3.2 | 4.8 | 0.00 | 0.41 | 0.13 | 97 | 1010.5 |
| 20260905025037 | 15 | 325 | 1.6 | 4.8 | 0.00 | 0.41 | 0.13 | 97 | 1010.4 |
| 20260905024518 | 15 | 324 | 3.2 | 4.8 | 0.00 | 0.41 | 0.13 | 98 | 1010.4 |
| 20260905024029 | 15 | 333 | 3.2 | 9.7 | 0.00 | 0.41 | 0.13 | 98 | 1010.5 |
| 20260905023541 | 15 | 316 | 1.6 | 9.7 | 0.00 | 0.41 | 0.13 | 98 | 1010.2 |
| 20260905023022 | 15 | 328 | 1.6 | 8.0 | 0.00 | 0.41 | 0.13 | 98 | 1010.2 |
| 20260905022533 | 15 | 327 | 1.6 | 8.0 | 0.00 | 0.41 | 0.13 | 98 | 1010.2 |
| 20260905022045 | 15 | 341 | 1.6 | 8.0 | 0.03 | 0.41 | 0.13 | 98 | 1010.1 |
| 20260905021526 | 15 | 318 | 3.2 | 8.0 | 0.03 | 0.41 | 0.13 | 98 | 1010.3 |
| 20260905021037 | 15 | 319 | 1.6 | 4.8 | 0.03 | 0.41 | 0.13 | 98 | 1010.4 |
| 20260905020517 | 15 | 323 | 3.2 | 4.8 | 0.03 | 0.41 | 0.13 | 98 | 1010.3 |
| 20260905020029 | 15 | 317 | 1.6 | 4.8 | 0.03 | 0.41 | 0.13 | 98 | 1010.0 |
| 20260905015541 | 15 | 325 | 3.2 | 8.0 | 0.03 | 0.41 | 0.13 | 98 | 1010.0 |
| 20260905015021 | 15 | 329 | 1.6 | 3.2 | 0.03 | 0.41 | 0.13 | 98 | 1009.9 |
| 20260905014534 | 15 | 313 | 1.6 | 3.2 | 0.03 | 0.41 | 0.13 | 98 | 1009.8 |
| 20260905014029 | 15 | 335 | 3.2 | 9.7 | 0.03 | 0.41 | 0.13 | 98 | 1010.0 |
| 20260905013541 | 15 | 310 | 1.6 | 9.7 | 0.03 | 0.41 | 0.13 | 98 | 1010.1 |
| 20260905013021 | 15 | 313 | 1.6 | 8.0 | 0.05 | 0.41 | 0.13 | 98 | 1010.1 |
| 20260905012533 | 15 | 316 | 1.6 | 4.8 | 0.05 | 0.41 | 0.13 | 98 | 1010.0 |
| 20260905012045 | 15 | 324 | 1.6 | 3.2 | 0.03 | 0.38 | 0.10 | 98 | 1009.7 |
| 20260905011525 | 15 | 349 | 1.6 | 8.0 | 0.03 | 0.38 | 0.10 | 98 | 1010.0 |
| 20260905011037 | 15 | 321 | 1.6 | 8.0 | 0.03 | 0.38 | 0.10 | 98 | 1010.0 |
| 20260905010517 | 15 | 328 | 3.2 | 4.8 | 0.03 | 0.38 | 0.10 | 98 | 1009.9 |
| 20260905010029 | 15 | 344 | 1.6 | 8.0 | 0.03 | 0.38 | 0.10 | 98 | 1009.5 |
| 20260905005541 | 15 | 345 | 1.6 | 8.0 | 0.03 | 0.38 | 0.10 | 98 | 1009.5 |
| 20260905005022 | 15 | 332 | 1.6 | 4.8 | 0.03 | 0.38 | 0.10 | 97 | 1009.3 |
| 20260905004533 | 15 | 324 | 3.2 | 9.7 | 0.05 | 0.38 | 0.10 | 97 | 1009.6 |
| 20260905004045 | 15 | 317 | 3.2 | 8.0 | 0.05 | 0.38 | 0.10 | 97 | 1009.7 |
| 20260905003525 | 15 | 328 | 3.2 | 12.9 | 0.05 | 0.38 | 0.10 | 97 | 1009.9 |
| 20260905003037 | 15 | 332 | 3.2 | 12.9 | 0.03 | 0.36 | 0.08 | 97 | 1009.9 |
| 20260905002517 | 15 | 330 | 3.2 | 11.3 | 0.03 | 0.36 | 0.08 | 97 | 1009.8 |
| 20260905002029 | 15 | 351 | 3.2 | 8.0 | 0.03 | 0.36 | 0.08 | 97 | 1009.5 |
| 20260905001541 | 15 | 324 | 1.6 | 4.8 | 0.05 | 0.36 | 0.08 | 97 | 1009.7 |
| 20260905001021 | 15 | 310 | 1.6 | 4.8 | 0.05 | 0.36 | 0.08 | 97 | 1009.3 |
| 20260905000533 | 15 | 316 | 3.2 | 9.7 | 0.05 | 0.36 | 0.08 | 97 | 1008.9 |
| 20260905000045 | 15 | 323 | 1.6 | 8.0 | 0.05 | 0.36 | 0.08 | 97 | 1008.6 |
| 20260904235525 | 15 | 315 | 3.2 | 8.0 | 0.05 | 0.36 | 0.08 | 97 | 1008.5 |
| 20260904235037 | 15 | 330 | 3.2 | 8.0 | 0.08 | 0.36 | 0.08 | 97 | 1008.8 |
| 20260904234517 | 15 | 323 | 1.6 | 4.8 | 0.05 | 0.33 | 0.05 | 97 | 1008.7 |
| 20260904234029 | 15 | 325 | 3.2 | 8.0 | 0.05 | 0.33 | 0.05 | 97 | 1008.6 |
| 20260904233532 | 15 | 317 | 3.2 | 8.0 | 0.05 | 0.33 | 0.05 | 97 | 1008.8 |
| 20260904233037 | 15 | 328 | 3.2 | 8.0 | 0.05 | 0.33 | 0.05 | 97 | 1008.6 |
| 20260904232517 | 15 | 322 | 3.2 | 8.0 | 0.05 | 0.33 | 0.05 | 97 | 1008.5 |
| 20260904232030 | 15 | 326 | 3.2 | 9.7 | 0.05 | 0.33 | 0.05 | 97 | 1008.5 |
| 20260904231542 | 15 | 337 | 3.2 | 11.3 | 0.03 | 0.30 | 0.03 | 97 | 1008.6 |
| 20260904231021 | 15 | 320 | 3.2 | 9.7 | 0.03 | 0.30 | 0.03 | 97 | 1008.7 |
| 20260904230535 | 15 | 334 | 3.2 | 12.9 | 0.03 | 0.30 | 0.03 | 97 | 1008.4 |
| 20260904230045 | 15 | 336 | 3.2 | 8.0 | 0.03 | 0.30 | 0.03 | 97 | 1008.1 |
| 20260904225526 | 16 | 331 | 1.6 | 8.0 | 0.03 | 0.30 | 0.03 | 97 | 1008.1 |
| 20260904225037 | 16 | 319 | 3.2 | 4.8 | 0.00 | 0.28 | 0.00 | 97 | 1007.8 |
| 20260904224518 | 16 | 325 | 3.2 | 8.0 | 0.00 | 0.28 | 0.00 | 97 | 1007.7 |
| 20260904224030 | 16 | 302 | 3.2 | 8.0 | 0.00 | 0.28 | 0.00 | 97 | 1007.9 |
| 20260904223541 | 16 | 301 | 3.2 | 8.0 | 0.00 | 0.28 | 0.00 | 97 | 1007.9 |
| 20260904223021 | 16 | 317 | 3.2 | 4.8 | 0.00 | 0.28 | 0.00 | 98 | 1007.7 |
| 20260904222533 | 16 | 313 | 3.2 | 8.0 | 0.00 | 0.28 | 0.00 | 98 | 1007.2 |
| 20260904222046 | 16 | 340 | 1.6 | 3.2 | 0.00 | 0.28 | 0.00 | 98 | 1006.6 |
| 20260904221526 | 16 | 271 | 3.2 | 12.9 | 0.00 | 0.28 | 0.00 | 98 | 1006.5 |
| 20260904221037 | 17 | 325 | 3.2 | 8.0 | 0.00 | 0.28 | 0.00 | 98 | 1007.1 |
| 20260904220518 | 17 | 341 | 1.6 | 3.2 | 0.00 | 0.28 | 0.00 | 98 | 1007.1 |
| 20260904220029 | 17 | 318 | 1.6 | 4.8 | 0.00 | 0.28 | 0.00 | 98 | 1007.1 |
| 20260904215541 | 17 | 318 | 1.6 | 8.0 | 0.00 | 0.28 | 0.28 | 98 | 1007.2 |
| 20260904215021 | 17 | 304 | 1.6 | 3.2 | 0.00 | 0.28 | 0.28 | 98 | 1007.2 |
| 20260904214533 | 17 | 304 | 1.6 | 4.8 | 0.00 | 0.28 | 0.28 | 98 | 1007.1 |
| 20260904214045 | 17 | 323 | 1.6 | 4.8 | 0.00 | 0.28 | 0.28 | 98 | 1007.2 |
| 20260904213526 | 17 | 322 | 1.6 | 4.8 | 0.00 | 0.28 | 0.28 | 98 | 1007.1 |
| 20260904213037 | 17 | 289 | 1.6 | 4.8 | 0.00 | 0.28 | 0.28 | 98 | 1007.2 |
| 20260904212517 | 17 | 330 | 1.6 | 9.7 | 0.00 | 0.28 | 0.28 | 98 | 1006.9 |
| 20260904212047 | 17 | 344 | 1.6 | 1.6 | 0.00 | 0.28 | 0.28 | 98 | 1007.0 |
| 20260904211526 | 17 | 334 | 1.6 | 3.2 | 0.00 | 0.28 | 0.28 | 98 | 1007.4 |
| 20260904211037 | 17 | 341 | 3.2 | 8.0 | 0.00 | 0.28 | 0.28 | 98 | 1007.7 |
| 20260904210517 | 17 | 300 | 1.6 | 8.0 | 0.00 | 0.28 | 0.28 | 98 | 1007.5 |
| 20260904210029 | 17 | 316 | 1.6 | 8.0 | 0.00 | 0.28 | 0.28 | 98 | 1007.6 |
| 20260904205541 | 17 | 326 | 1.6 | 3.2 | 0.00 | 0.28 | 0.28 | 98 | 1007.6 |
| 20260904205053 | 17 | 331 | 0.0 | 1.6 | 0.03 | 0.28 | 0.28 | 97 | 1007.5 |
| 20260904204517 | 17 | 323 | 0.0 | 1.6 | 0.03 | 0.28 | 0.28 | 97 | 1006.9 |
| 20260904204029 | 17 | 323 | 0.0 | 3.2 | 0.03 | 0.28 | 0.28 | 97 | 1007.1 |
| 20260904203541 | 17 | 323 | 0.0 | 1.6 | 0.08 | 0.28 | 0.28 | 97 | 1007.1 |
| 20260904203037 | 17 | 321 | 0.0 | 1.6 | 0.15 | 0.28 | 0.28 | 97 | 1007.1 |
| 20260904202517 | 17 | 320 | 1.6 | 3.2 | 0.20 | 0.28 | 0.28 | 97 | 1007.2 |
| 20260904202029 | 17 | 322 | 1.6 | 3.2 | 0.28 | 0.28 | 0.28 | 97 | 1007.2 |
| 20260904201541 | 17 | 323 | 1.6 | 3.2 | 0.28 | 0.28 | 0.28 | 97 | 1007.2 |
| 20260904201021 | 17 | 328 | 1.6 | 3.2 | 0.28 | 0.28 | 0.28 | 97 | 1007.4 |
| 20260904200533 | 17 | 314 | 3.2 | 9.7 | 0.28 | 0.28 | 0.28 | 96 | 1007.4 |
| 20260904200045 | 17 | 325 | 3.2 | 8.0 | 0.28 | 0.28 | 0.28 | 96 | 1007.4 |
| 20260904195525 | 18 | 315 | 3.2 | 9.7 | 0.28 | 0.28 | 0.28 | 96 | 1007.3 |
| 20260904195037 | 18 | 330 | 8.0 | 16.1 | 0.25 | 0.25 | 0.25 | 96 | 1007.4 |
| 20260904194517 | 18 | 300 | 4.8 | 20.9 | 0.25 | 0.25 | 0.25 | 96 | 1007.5 |
| 20260904194029 | 18 | 317 | 6.4 | 25.7 | 0.25 | 0.25 | 0.25 | 95 | 1007.3 |
| 20260904193541 | 20 | 304 | 9.7 | 25.7 | 0.20 | 0.20 | 0.20 | 94 | 1006.8 |
| 20260904193021 | 20 | 311 | 4.8 | 14.5 | 0.13 | 0.13 | 0.13 | 91 | 1006.0 |
| 20260904192533 | 22 | 318 | 3.2 | 11.3 | 0.08 | 0.08 | 0.08 | 86 | 1005.5 |
| 20260904192045 | 23 | 107 | 4.8 | 11.3 | 0.00 | 0.00 | 0.00 | 76 | 1005.4 |
| 20260904191525 | 23 | 290 | 4.8 | 11.3 | 0.00 | 0.00 | 0.00 | 72 | 1005.0 |
| 20260904191037 | 23 | 277 | 3.2 | 11.3 | 0.00 | 0.00 | 0.00 | 71 | 1005.0 |
| 20260904190517 | 23 | 331 | 3.2 | 8.0 | 0.00 | 0.00 | 0.00 | 71 | 1004.9 |
| 20260904190045 | 23 | 100 | 3.2 | 11.3 | 0.00 | 0.00 | 0.00 | 71 | 1005.0 |
| 20260904185526 | 23 | 248 | 3.2 | 16.1 | 0.00 | 0.00 | 0.00 | 71 | 1005.2 |
| 20260904185037 | 23 | 47 | 3.2 | 8.0 | 0.00 | 0.00 | 0.00 | 72 | 1005.2 |
| 20260904184517 | 23 | 7 | 3.2 | 12.9 | 0.00 | 0.00 | 0.00 | 72 | 1005.3 |
| 20260904184029 | 23 | 289 | 3.2 | 8.0 | 0.00 | 0.00 | 0.00 | 72 | 1005.1 |